Time;durP1;ratioP1;P1;durP2;ratioP2;P2;SDS_P1;SDS_P2;PMS_P1;PMS_P2;Temp;Humidity;BMP_temperature;BMP_pressure;BME280_temperature;BME280_humidity;BME280_pressure;Samples;Min_cycle;Max_cycle;Signal;HPM_P1;HPM_P2
2022/05/04 00:02:01;;;;;;;4.67;2.83;;;;;;;14.14;53.57;100197.63;1660945;86;21084;-58
2022/05/04 00:04:28;;;;;;;6.22;3.33;;;;;;;14.16;53.87;100192.97;1656137;86;21082;-59
2022/05/04 00:06:56;;;;;;;6.37;3.00;;;;;;;14.22;53.80;100191.35;1653260;85;21032;-66
2022/05/04 00:09:24;;;;;;;5.33;2.33;;;;;;;14.16;53.70;100192.97;1653405;86;21129;-58
2022/05/04 00:11:51;;;;;;;5.50;2.90;;;;;;;14.19;53.30;100194.38;1626069;87;21162;-58
2022/05/04 00:14:19;;;;;;;5.08;2.83;;;;;;;14.13;53.53;100194.72;1653500;86;20950;-65
2022/05/04 00:16:46;;;;;;;7.25;2.70;;;;;;;14.01;53.89;100195.84;1653797;85;21098;-58
2022/05/04 00:19:13;;;;;;;4.53;2.42;;;;;;;14.11;53.95;100187.56;1653580;86;21113;-61
2022/05/04 00:21:41;;;;;;;5.20;2.60;;;;;;;14.15;53.71;100187.44;1653577;85;21086;-58
2022/05/04 00:24:08;;;;;;;7.78;2.77;;;;;;;14.10;53.33;100186.76;1654156;86;21848;-65
2022/05/04 00:26:36;;;;;;;4.45;2.62;;;;;;;14.05;53.47;100197.55;1654168;85;21582;-58
2022/05/04 00:29:03;;;;;;;4.40;2.67;;;;;;;13.97;53.70;100192.03;1653762;86;21015;-58
2022/05/04 00:31:30;;;;;;;6.47;2.77;;;;;;;13.80;54.34;100193.51;1653934;85;21035;-60
2022/05/04 00:33:58;;;;;;;6.35;3.27;;;;;;;13.78;54.41;100193.70;1653404;86;21026;-55
2022/05/04 00:36:25;;;;;;;5.83;2.77;;;;;;;13.78;54.35;100196.31;1654073;85;21146;-57
2022/05/04 00:38:54;;;;;;;8.08;2.87;;;;;;;13.83;53.79;100193.91;1653525;86;21604;-58
2022/05/04 00:41:22;;;;;;;6.75;3.22;;;;;;;13.84;53.27;100195.50;1654899;85;21074;-59
2022/05/04 00:43:54;;;;;;;4.37;2.55;;;;;;;13.63;53.93;100195.23;1653729;86;21023;-63
2022/05/04 00:46:21;;;;;;;4.97;2.95;;;;;;;13.50;54.79;100201.02;1654242;85;21142;-56
2022/05/04 00:48:49;;;;;;;8.13;2.80;;;;;;;13.40;55.55;100193.56;1654000;86;21378;-57
2022/05/04 00:51:17;;;;;;;4.70;2.70;;;;;;;13.32;55.89;100186.72;1627209;87;21075;-55
2022/05/04 00:53:45;;;;;;;7.03;3.17;;;;;;;13.29;56.80;100188.93;1627831;87;21023;-64
2022/05/04 00:56:12;;;;;;;5.85;3.08;;;;;;;13.19;57.00;100192.45;1688177;83;21141;-56
2022/05/04 00:58:55;;;;;;;5.47;2.60;;;;;;;13.26;56.98;100186.71;1653799;86;21122;-55
2022/05/04 01:01:27;;;;;;;6.17;3.00;;;;;;;13.21;57.30;100188.60;1654653;85;21583;-55
2022/05/04 01:03:58;;;;;;;6.33;3.17;;;;;;;13.28;57.13;100188.64;1649805;86;21086;-56
2022/05/04 01:06:26;;;;;;;5.10;3.10;;;;;;;13.36;56.81;100183.19;1630877;86;21556;-57
2022/05/04 01:08:54;;;;;;;7.97;3.08;;;;;;;13.29;57.18;100177.95;1663413;86;21049;-57
2022/05/04 01:11:21;;;;;;;4.35;2.75;;;;;;;13.00;58.08;100182.27;1663379;86;20989;-56
2022/05/04 01:14:10;;;;;;;5.80;3.33;;;;;;;12.99;58.80;100180.13;1662337;86;21146;-62
2022/05/04 01:16:42;;;;;;;5.58;3.00;;;;;;;12.89;59.94;100181.05;1662786;86;21574;-56
2022/05/04 01:19:10;;;;;;;11.33;3.37;;;;;;;12.97;59.97;100174.82;1662399;86;20961;-63
2022/05/04 01:21:37;;;;;;;4.92;2.77;;;;;;;12.98;61.49;100177.73;1661894;85;21125;-63
2022/05/04 01:24:05;;;;;;;8.48;2.87;;;;;;;13.08;61.71;100176.33;1662557;86;21096;-55
2022/05/04 01:26:33;;;;;;;7.50;2.90;;;;;;;13.02;61.49;100171.89;1662231;85;21200;-55
2022/05/04 01:29:01;;;;;;;5.03;3.20;;;;;;;12.93;62.66;100172.30;1662607;86;21094;-59
2022/05/04 01:31:28;;;;;;;5.78;2.52;;;;;;;12.95;62.20;100178.12;1662468;86;21144;-55
2022/05/04 01:33:56;;;;;;;13.48;3.37;;;;;;;13.02;61.11;100175.81;1662089;86;21061;-60
2022/05/04 01:36:23;;;;;;;5.03;2.83;;;;;;;12.88;61.81;100176.33;1662240;85;21591;-56
2022/05/04 01:38:51;;;;;;;5.92;3.92;;;;;;;12.65;62.67;100173.25;1662682;86;22718;-56
2022/05/04 01:44:04;;;;;;;4.90;2.87;;;;;;;12.85;62.92;100176.72;1661987;86;21042;-56
2022/05/04 01:46:31;;;;;;;6.75;3.40;;;;;;;12.84;64.92;100177.73;1662448;86;21481;-56
2022/05/04 01:49:00;;;;;;;5.05;2.87;;;;;;;12.85;64.23;100178.53;1662468;85;21148;-63
2022/05/04 01:51:27;;;;;;;5.72;3.17;;;;;;;12.78;62.92;100179.83;1662263;86;21207;-57
2022/05/04 01:53:55;;;;;;;6.00;3.08;;;;;;;12.81;63.20;100181.25;1662828;86;21065;-63
2022/05/04 01:56:22;;;;;;;5.55;3.20;;;;;;;12.83;62.39;100176.61;1662638;86;21081;-54
2022/05/04 01:58:49;;;;;;;6.05;3.62;;;;;;;12.73;63.49;100175.70;1662660;86;21089;-55
2022/05/04 02:01:17;;;;;;;6.62;3.17;;;;;;;12.78;63.38;100175.10;1662070;86;21002;-55
2022/05/04 02:03:45;;;;;;;6.05;3.10;;;;;;;12.76;63.09;100173.97;1652968;84;21521;-57
2022/05/04 02:06:11;;;;;;;7.45;3.37;;;;;;;12.80;62.61;100170.46;1690398;84;20976;-57
2022/05/04 02:08:41;;;;;;;5.25;3.10;;;;;;;12.83;66.35;100174.80;1690532;84;21446;-56
2022/05/04 02:11:08;;;;;;;6.62;3.37;;;;;;;12.89;68.02;100179.23;1690686;84;20934;-58
2022/05/04 02:13:36;;;;;;;5.75;3.98;;;;;;;12.84;71.25;100179.52;1690698;84;21077;-56
2022/05/04 02:16:05;;;;;;;5.35;3.45;;;;;;;12.81;71.26;100182.55;1690281;84;21367;-57
2022/05/04 02:18:33;;;;;;;5.03;3.10;;;;;;;12.80;77.61;100179.11;1690777;84;21021;-55
2022/05/04 02:21:01;;;;;;;5.90;4.10;;;;;;;12.75;73.41;100177.60;1691225;84;21076;-63
2022/05/04 02:23:28;;;;;;;6.47;3.15;;;;;;;12.94;80.08;100177.83;1690735;84;21059;-55
2022/05/04 02:25:56;;;;;;;7.78;4.05;;;;;;;13.10;86.46;100183.46;1689874;84;21061;-64
2022/05/04 02:28:23;;;;;;;5.80;3.62;;;;;;;13.12;80.96;100178.84;1690726;84;21209;-55
2022/05/04 02:30:50;;;;;;;8.58;3.92;;;;;;;13.32;81.09;100185.41;1690828;84;21104;-55
2022/05/04 02:33:18;;;;;;;7.85;3.77;;;;;;;13.35;78.26;100181.08;1690494;84;21626;-58
2022/05/04 02:38:31;;;;;;;5.80;3.52;;;;;;;13.65;76.61;100184.57;1690981;84;22274;-56
2022/05/04 02:40:59;;;;;;;7.20;3.77;;;;;;;13.57;90.08;100187.41;1690561;84;21338;-55
2022/05/04 02:43:28;;;;;;;9.18;4.00;;;;;;;13.65;96.54;100188.50;1690630;84;21133;-57
2022/05/04 02:45:56;;;;;;;6.55;3.42;;;;;;;13.77;98.54;100192.09;1690465;84;21125;-56
2022/05/04 02:48:23;;;;;;;6.62;3.40;;;;;;;13.89;99.29;100194.88;1691556;84;21132;-56
2022/05/04 02:50:50;;;;;;;7.90;4.10;;;;;;;14.04;88.02;100192.81;1690515;84;21061;-55
2022/05/04 02:53:18;;;;;;;6.60;4.50;;;;;;;14.18;81.87;100192.27;1690979;84;21415;-55
2022/05/04 02:55:45;;;;;;;8.73;4.55;;;;;;;14.04;78.31;100204.61;1695328;84;21110;-57
2022/05/04 02:58:13;;;;;;;7.72;3.55;;;;;;;14.30;73.49;100194.53;1690694;84;22571;-55
2022/05/04 03:00:40;;;;;;;8.45;4.42;;;;;;;14.78;71.46;100195.42;1690477;84;21569;-56
2022/05/04 03:03:07;;;;;;;6.85;3.87;;;;;;;15.21;71.03;100193.89;1690478;84;21822;-56
2022/05/04 03:05:35;;;;;;;7.25;4.30;;;;;;;15.62;70.59;100190.69;1689521;83;21210;-55
2022/05/04 03:08:02;;;;;;;9.98;4.40;;;;;;;16.28;67.23;100188.64;1653167;86;21106;-56
2022/05/04 03:11:54;;;;;;;8.00;4.78;;;;;;;16.66;67.90;100190.16;1655016;85;21476;-56
2022/05/04 03:13:00;;;;;;;6.25;4.33;;;;;;;17.09;65.02;100186.52;1648098;86;21090;-57
2022/05/04 03:15:27;;;;;;;6.10;3.77;;;;;;;17.36;63.24;100188.20;1655122;85;21137;-56
2022/05/04 03:17:55;;;;;;;7.00;4.78;;;;;;;17.83;59.38;100180.27;1653696;86;21080;-56
2022/05/04 03:20:22;;;;;;;7.33;4.70;;;;;;;18.13;58.86;100186.67;1626783;87;21091;-55
2022/05/04 03:22:52;;;;;;;6.70;4.33;;;;;;;18.59;57.31;100181.44;1653052;86;21066;-57
2022/05/04 03:25:19;;;;;;;7.70;4.50;;;;;;;19.23;56.76;100183.82;1626403;87;21694;-58
2022/05/04 03:27:46;;;;;;;6.30;4.33;;;;;;;19.97;57.65;100176.39;1653638;86;21747;-57
2022/05/04 03:30:14;;;;;;;8.40;4.20;;;;;;;21.79;57.22;100176.05;1653738;85;22353;-57
2022/05/04 03:32:42;;;;;;;7.10;4.10;;;;;;;21.79;57.22;100176.05;1653224;86;21978;-60
2022/05/04 03:35:10;;;;;;;7.43;4.00;;;;;;;22.38;60.84;100177.03;1654250;85;22699;-57
2022/05/04 03:37:37;;;;;;;7.73;3.60;;;;;;;23.11;64.90;100169.37;1653442;86;21792;-57
2022/05/04 03:40:05;;;;;;;7.03;3.73;;;;;;;23.83;58.88;100169.49;1626640;87;21012;-54
2022/05/04 03:42:33;;;;;;;6.70;3.83;;;;;;;24.43;54.80;100164.10;1653454;86;21369;-61
2022/05/04 03:45:00;;;;;;;6.43;4.03;;;;;;;25.00;56.66;100163.39;1626058;87;21321;-55
2022/05/04 03:47:27;;;;;;;5.83;3.53;;;;;;;25.60;54.84;100170.25;1653892;86;21110;-54
2022/05/04 03:49:54;;;;;;;5.17;3.40;;;;;;;26.12;52.83;100166.68;1626836;87;21135;-54
2022/05/04 03:52:21;;;;;;;6.87;4.20;;;;;;;26.56;52.93;100170.09;1653596;86;21125;-56
2022/05/04 03:54:49;;;;;;;7.47;5.27;;;;;;;27.35;44.83;100162.03;1637585;86;21247;-55
2022/05/04 03:57:16;;;;;;;8.07;5.40;;;;;;;27.98;44.15;100162.66;1653498;86;22096;-54
2022/05/04 03:59:44;;;;;;;5.23;3.70;;;;;;;28.49;42.83;100154.83;1643501;86;21615;-55
2022/05/04 04:02:11;;;;;;;5.90;4.10;;;;;;;28.75;41.76;100155.00;1626271;87;21027;-56
2022/05/04 04:04:38;;;;;;;6.47;4.27;;;;;;;29.15;42.67;100156.95;1654164;86;21032;-59
2022/05/04 04:07:06;;;;;;;6.00;4.17;;;;;;;29.56;41.77;100164.67;1660610;86;21277;-55
2022/05/04 04:09:37;;;;;;;6.50;4.30;;;;;;;29.88;41.50;100158.66;1633133;86;21295;-55
2022/05/04 04:12:06;;;;;;;6.17;4.33;;;;;;;30.27;38.12;100161.25;1694559;83;21013;-59
2022/05/04 04:14:33;;;;;;;5.77;3.97;;;;;;;30.39;36.25;100161.17;1660900;86;21438;-55
2022/05/04 04:17:00;;;;;;;8.73;3.93;;;;;;;30.40;36.22;100162.74;1660111;86;21069;-55
2022/05/04 04:19:27;;;;;;;4.13;3.03;;;;;;;30.53;33.44;100156.38;1633722;86;21180;-55
2022/05/04 04:21:55;;;;;;;3.77;2.47;;;;;;;30.57;28.04;100155.98;1695506;83;20950;-62
2022/05/04 04:24:21;;;;;;;5.12;2.77;;;;;;;30.48;30.70;100155.21;1658964;85;21058;-56
2022/05/04 04:26:50;;;;;;;6.10;3.08;;;;;;;30.66;31.66;100154.08;1660034;86;21575;-55
2022/05/04 04:29:18;;;;;;;5.87;2.37;;;;;;;30.87;28.23;100160.13;1632190;87;22214;-54
2022/05/04 04:31:46;;;;;;;3.80;2.08;;;;;;;31.15;26.37;100160.53;1660279;85;22368;-59
2022/05/04 04:34:13;;;;;;;4.15;2.00;;;;;;;31.20;25.27;100153.61;1633027;86;21122;-55
2022/05/04 04:36:40;;;;;;;4.85;2.10;;;;;;;31.51;23.49;100150.61;1660532;86;21023;-57
2022/05/04 04:39:08;;;;;;;5.28;2.30;;;;;;;31.78;23.20;100152.59;1660703;85;21601;-56
2022/05/04 04:41:36;;;;;;;4.12;2.35;;;;;;;32.03;22.38;100149.51;1633263;86;21137;-56
2022/05/04 04:44:04;;;;;;;3.67;2.40;;;;;;;32.18;21.73;100149.69;1695534;83;21202;-61
2022/05/04 04:46:32;;;;;;;4.42;2.27;;;;;;;32.22;21.65;100153.30;1660746;86;21082;-58
2022/05/04 04:48:59;;;;;;;3.80;2.95;;;;;;;32.26;21.43;100155.34;1660566;86;21563;-55
2022/05/04 04:51:26;;;;;;;3.40;2.00;;;;;;;32.21;21.61;100144.98;1632146;87;21082;-58
2022/05/04 04:53:55;;;;;;;4.62;1.80;;;;;;;32.62;21.45;100146.05;1695071;83;21068;-56
2022/05/04 04:56:22;;;;;;;5.20;2.55;;;;;;;32.97;20.97;100145.69;1660762;86;21159;-57
2022/05/04 04:58:50;;;;;;;5.30;2.83;;;;;;;33.52;20.57;100138.93;1659949;86;21544;-55
2022/05/04 05:01:17;;;;;;;3.45;2.00;;;;;;;33.80;20.23;100139.57;1633326;86;21385;-55
2022/05/04 05:03:46;;;;;;;3.45;2.08;;;;;;;33.99;19.96;100132.22;1651373;86;21078;-55
2022/05/04 05:06:13;;;;;;;3.40;1.85;;;;;;;34.19;19.53;100141.27;1657170;86;21051;-55
2022/05/04 05:08:41;;;;;;;2.75;1.82;;;;;;;34.29;19.35;100141.55;1626230;87;21657;-56
2022/05/04 05:11:08;;;;;;;2.90;1.62;;;;;;;34.54;19.50;100142.80;1654275;86;21108;-58
2022/05/04 05:16:06;;;;;;;4.05;2.25;;;;;;;34.42;19.36;100137.43;1627029;87;21075;-55
2022/05/04 05:16:08;;;;;;;7.60;2.17;;;;;;;34.82;19.17;100137.33;1649817;86;21476;-59
2022/05/04 05:18:37;;;;;;;3.60;1.77;;;;;;;34.99;18.57;100132.93;1626864;87;21055;-56
2022/05/04 05:21:04;;;;;;;3.58;2.00;;;;;;;34.83;18.55;100135.63;1654572;86;21910;-55
2022/05/04 05:23:33;;;;;;;3.30;1.90;;;;;;;34.66;18.71;100133.81;1655366;85;21014;-55
2022/05/04 05:26:01;;;;;;;3.83;1.70;;;;;;;34.70;18.87;100131.98;1654376;86;21089;-55
2022/05/04 05:28:28;;;;;;;2.52;1.55;;;;;;;34.87;18.56;100126.23;1654359;85;21078;-61
2022/05/04 05:30:55;;;;;;;6.40;1.92;;;;;;;35.02;18.58;100131.45;1654097;86;21758;-58
2022/05/04 05:33:22;;;;;;;3.10;2.00;;;;;;;34.77;18.95;100123.47;1627255;87;21268;-55
2022/05/04 05:35:51;;;;;;;2.47;1.80;;;;;;;34.79;18.74;100124.48;1653916;86;21121;-58
2022/05/04 05:38:20;;;;;;;2.95;1.60;;;;;;;34.83;18.50;100118.59;1654208;85;21043;-61
2022/05/04 05:40:47;;;;;;;2.35;1.50;;;;;;;35.01;18.43;100114.99;1653669;86;21157;-56
2022/05/04 05:43:14;;;;;;;2.10;1.47;;;;;;;35.07;18.57;100116.28;1654671;85;21472;-56
2022/05/04 05:45:42;;;;;;;3.75;1.62;;;;;;;34.99;18.55;100112.62;1653871;86;21651;-57
2022/05/04 05:48:09;;;;;;;2.90;1.40;;;;;;;35.28;18.21;100112.71;1626881;87;20981;-57
2022/05/04 05:50:37;;;;;;;2.75;1.80;;;;;;;35.32;17.90;100103.30;1652824;86;21055;-63
2022/05/04 05:53:05;;;;;;;3.33;1.62;;;;;;;35.31;18.29;100103.88;1654498;85;21431;-56
2022/05/04 05:55:34;;;;;;;1.98;1.50;;;;;;;35.26;18.66;100106.84;1653715;86;21074;-57
2022/05/04 05:58:01;;;;;;;4.22;1.67;;;;;;;35.57;18.86;100111.98;1657792;84;21165;-57
2022/05/04 06:00:29;;;;;;;3.08;1.95;;;;;;;36.06;21.65;100112.23;1653198;86;20995;-60
2022/05/04 06:02:57;;;;;;;3.50;1.82;;;;;;;36.25;19.15;100102.49;1654171;85;21228;-56
2022/05/04 06:05:25;;;;;;;2.50;1.40;;;;;;;36.24;18.59;100102.30;1653653;86;21075;-57
2022/05/04 06:07:53;;;;;;;3.40;1.70;;;;;;;36.17;17.77;100100.22;1655035;85;21019;-57
2022/05/04 06:10:21;;;;;;;2.52;1.57;;;;;;;35.86;17.73;100103.88;1653569;86;22303;-63
2022/05/04 06:12:50;;;;;;;4.75;1.87;;;;;;;35.71;17.63;100102.02;1625052;87;21467;-62
2022/05/04 06:15:17;;;;;;;4.00;1.90;;;;;;;35.68;17.64;100106.22;1653286;86;21901;-55
2022/05/04 06:17:46;;;;;;;3.10;1.77;;;;;;;35.73;17.50;100097.81;1643379;85;21610;-56
2022/05/04 06:20:13;;;;;;;5.45;1.92;;;;;;;35.64;17.57;100097.22;1626627;87;21036;-55
2022/05/04 06:22:41;;;;;;;3.62;1.47;;;;;;;35.82;17.44;100092.17;1652590;86;21623;-61
2022/05/04 06:25:09;;;;;;;3.27;1.50;;;;;;;35.76;17.41;100086.27;1626921;87;21079;-55
2022/05/04 06:27:37;;;;;;;4.08;1.52;;;;;;;35.77;17.53;100091.11;1653054;86;20984;-56
2022/05/04 06:35:37;;;;;;;3.67;1.77;;;;;;;36.26;17.17;100078.30;1627026;87;21829;-54
2022/05/04 06:38:04;;;;;;;2.72;2.00;;;;;;;36.45;17.10;100078.25;1653943;86;20950;-56
2022/05/04 06:40:33;;;;;;;3.02;1.80;;;;;;;36.59;16.93;100079.64;1653782;85;21592;-56
2022/05/04 06:43:00;;;;;;;2.85;1.92;;;;;;;36.68;17.31;100074.77;1653535;85;21016;-61
2022/05/04 06:45:28;;;;;;;3.67;1.70;;;;;;;36.84;17.21;100071.91;1626728;87;21137;-55
2022/05/04 06:47:55;;;;;;;4.00;2.12;;;;;;;36.88;16.40;100068.08;1653894;86;21089;-56
2022/05/04 06:50:22;;;;;;;3.50;1.62;;;;;;;36.77;16.21;100067.14;1626002;87;21088;-55
2022/05/04 06:52:49;;;;;;;3.37;1.60;;;;;;;36.69;16.16;100064.11;1653486;86;21358;-61
2022/05/04 06:55:17;;;;;;;3.55;1.90;;;;;;;36.54;16.14;100063.87;1654239;85;21961;-55
2022/05/04 06:57:44;;;;;;;3.70;1.95;;;;;;;36.42;16.42;100064.61;1618840;87;21038;-56
2022/05/04 07:00:12;;;;;;;3.67;2.05;;;;;;;36.25;16.23;100063.14;1653509;86;21871;-57
2022/05/04 07:02:40;;;;;;;3.15;2.00;;;;;;;36.39;16.15;100066.11;1625616;87;22204;-56
2022/05/04 07:05:08;;;;;;;4.35;1.90;;;;;;;36.40;15.89;100067.67;1653704;86;21007;-56
2022/05/04 07:07:35;;;;;;;4.83;2.30;;;;;;;36.42;16.14;100064.61;1654792;85;21039;-54
2022/05/04 07:10:03;;;;;;;3.22;2.10;;;;;;;36.71;15.78;100061.24;1653739;86;21082;-56
2022/05/04 07:12:30;;;;;;;3.10;1.67;;;;;;;36.74;15.40;100055.63;1654538;85;22331;-56
2022/05/04 07:14:58;;;;;;;3.75;2.00;;;;;;;36.66;15.81;100058.04;1653019;86;21106;-61
2022/05/04 07:17:25;;;;;;;2.58;1.82;;;;;;;36.46;16.34;100062.19;1626570;87;22165;-55
2022/05/04 07:19:53;;;;;;;3.77;2.10;;;;;;;36.60;15.72;100063.59;1653664;86;21511;-55
2022/05/04 07:22:21;;;;;;;3.00;2.00;;;;;;;36.58;15.68;100059.08;1654393;85;21070;-56
2022/05/04 07:24:48;;;;;;;4.40;1.82;;;;;;;36.54;15.68;100058.44;1653284;86;21222;-55
2022/05/04 07:27:15;;;;;;;4.83;2.52;;;;;;;36.50;15.76;100050.81;1625309;87;21472;-56
2022/05/04 07:29:44;;;;;;;4.72;2.62;;;;;;;36.63;15.39;100053.33;1634025;86;22047;-54
2022/05/04 07:32:12;;;;;;;2.90;2.08;;;;;;;36.60;15.50;100054.08;1653980;86;21062;-56
2022/05/04 07:34:40;;;;;;;2.70;1.80;;;;;;;36.72;15.54;100046.51;1626836;87;21079;-62
2022/05/04 07:37:07;;;;;;;4.80;2.08;;;;;;;36.63;15.56;100046.54;1653724;86;21382;-61
2022/05/04 07:42:28;;;;;;;5.10;2.25;;;;;;;36.30;15.61;100046.58;1653477;86;21054;-55
2022/05/04 07:45:05;;;;;;;4.03;2.08;;;;;;;35.98;15.75;100045.42;1652796;86;21093;-56
2022/05/04 07:47:35;;;;;;;3.12;2.30;;;;;;;35.77;15.80;100051.21;1655331;85;21062;-55
2022/05/04 07:50:05;;;;;;;4.00;2.20;;;;;;;35.53;15.91;100044.71;1654363;86;21233;-59
2022/05/04 07:52:33;;;;;;;7.08;2.70;;;;;;;35.13;16.00;100039.02;1654294;85;27402;-58
2022/05/04 07:55:01;;;;;;;2.90;2.10;;;;;;;34.98;16.41;100046.02;1653723;86;21495;-54
2022/05/04 07:57:28;;;;;;;4.87;1.82;;;;;;;34.49;16.47;100039.64;1627209;87;21032;-55
2022/05/04 08:05:18;;;;;;;5.20;2.02;;;;;;;33.81;17.00;100042.45;1626790;87;21000;-55
2022/05/04 08:07:46;;;;;;;3.22;1.98;;;;;;;33.61;17.65;100040.17;1659946;85;21140;-62
2022/05/04 08:10:14;;;;;;;5.28;2.20;;;;;;;33.61;17.56;100041.52;1632060;87;21486;-56
2022/05/04 08:12:42;;;;;;;4.05;2.27;;;;;;;33.69;17.37;100035.18;1695635;83;21127;-55
2022/05/04 08:15:10;;;;;;;4.05;1.90;;;;;;;33.84;17.11;100040.41;1661376;86;21217;-56
2022/05/04 08:17:38;;;;;;;4.03;2.00;;;;;;;33.94;17.25;100034.48;1661041;86;21591;-55
2022/05/04 08:20:06;;;;;;;2.87;1.80;;;;;;;34.00;17.20;100039.12;1632315;87;21003;-62
2022/05/04 08:22:33;;;;;;;3.90;2.20;;;;;;;34.20;16.95;100027.84;1661486;85;21398;-56
2022/05/04 08:25:01;;;;;;;3.50;2.00;;;;;;;34.36;16.81;100033.50;1633029;87;21134;-56
2022/05/04 08:27:31;;;;;;;12.23;2.90;;;;;;;34.07;16.85;100027.92;1696661;83;21237;-56
2022/05/04 08:29:57;;;;;;;11.95;2.87;;;;;;;33.94;17.09;100035.06;1660419;86;20990;-62
2022/05/04 08:32:29;;;;;;;3.42;1.92;;;;;;;34.06;17.29;100030.42;1660571;86;21328;-55
2022/05/04 08:34:59;;;;;;;5.22;2.40;;;;;;;34.41;16.93;100031.10;1632133;86;21119;-55
2022/05/04 08:37:29;;;;;;;3.00;2.10;;;;;;;35.75;15.86;100022.88;1695092;83;21010;-56
2022/05/04 08:39:56;;;;;;;;;;;;;;;35.88;15.75;100024.30;1662899;86;21146;-61
2022/05/04 08:42:24;;;;;;;3.40;2.10;;;;;;;36.33;15.40;100020.05;1660985;86;20500;-55
2022/05/04 08:44:54;;;;;;;5.47;2.50;;;;;;;36.91;15.02;100015.73;1633569;86;21036;-57
2022/05/04 08:47:21;;;;;;;3.42;2.02;;;;;;;37.17;14.55;100010.09;1660835;86;21437;-63
2022/05/04 08:49:49;;;;;;;5.65;2.25;;;;;;;37.04;14.63;100015.54;1660413;86;21065;-55
2022/05/04 08:52:17;;;;;;;3.30;2.30;;;;;;;36.72;14.88;100016.63;1633250;86;22422;-55
2022/05/04 08:54:45;;;;;;;4.22;2.75;;;;;;;36.81;15.00;100008.79;1650481;86;21524;-55
2022/05/04 08:57:12;;;;;;;5.22;2.58;;;;;;;37.10;14.82;100011.36;1660667;85;21081;-55
2022/05/04 08:59:41;;;;;;;5.05;2.35;;;;;;;37.23;14.93;100004.53;1662007;85;21108;-62
2022/05/04 09:02:08;;;;;;;4.53;2.22;;;;;;;37.34;14.80;100001.95;1660789;86;21575;-61
2022/05/04 09:04:36;;;;;;;4.08;2.30;;;;;;;37.00;15.03;99991.81;1633351;86;21971;-55
2022/05/04 09:07:03;;;;;;;3.67;2.70;;;;;;;37.14;15.15;99990.45;1658061;84;20998;-57
2022/05/04 09:09:34;;;;;;;3.87;2.60;;;;;;;37.29;15.09;99989.47;1626213;87;21102;-62
2022/05/04 09:12:03;;;;;;;8.25;3.00;;;;;;;37.64;15.10;99994.55;1653575;86;21354;-61
2022/05/04 09:14:33;;;;;;;6.97;2.90;;;;;;;37.68;14.64;99991.87;1626508;87;21087;-54
2022/05/04 09:17:01;;;;;;;7.15;2.52;;;;;;;36.98;14.58;99987.34;1657711;86;21281;-55
2022/05/04 09:19:29;;;;;;;4.17;2.60;;;;;;;36.18;15.15;99987.03;1655599;85;21136;-56
2022/05/04 09:21:56;;;;;;;4.05;2.35;;;;;;;35.42;15.45;99994.34;1653334;86;21079;-60
2022/05/04 09:24:27;;;;;;;3.77;2.40;;;;;;;34.67;18.80;99989.99;1626552;87;21052;-54
2022/05/04 09:26:56;;;;;;;6.60;2.50;;;;;;;34.28;24.09;99990.36;1653878;86;21061;-55
2022/05/04 09:29:36;;;;;;;4.65;2.80;;;;;;;34.01;26.31;99995.49;1625807;87;22050;-55
2022/05/04 09:32:14;;;;;;;4.67;3.10;;;;;;;33.29;27.23;99997.32;1653331;86;21098;-55
2022/05/04 09:34:42;;;;;;;20.27;4.87;;;;;;;33.26;22.32;99987.98;1625777;87;21595;-57
2022/05/04 09:45:38;;;;;;;4.75;2.80;;;;;;;34.45;17.04;99977.84;1653364;85;21070;-56
2022/05/04 09:48:06;;;;;;;4.33;2.85;;;;;;;34.52;16.79;99986.73;1653918;85;21117;-64
2022/05/04 09:50:40;;;;;;;5.40;3.20;;;;;;;34.81;16.30;99968.63;1655101;85;21479;-56
2022/05/04 09:53:08;;;;;;;6.20;3.37;;;;;;;34.85;16.30;99964.64;1653037;86;21603;-57
2022/05/04 09:55:36;;;;;;;6.53;3.30;;;;;;;35.07;16.17;99966.70;1626529;87;21162;-57
2022/05/04 09:58:03;;;;;;;5.30;3.65;;;;;;;35.33;15.99;99966.08;1653170;86;20931;-58
2022/05/04 10:00:30;;;;;;;6.42;4.53;;;;;;;35.53;15.16;99966.88;1626429;87;21826;-57
2022/05/04 10:02:58;;;;;;;4.60;3.75;;;;;;;35.44;15.32;99970.36;1653544;86;21053;-63
2022/05/04 10:05:25;;;;;;;4.97;2.83;;;;;;;34.91;15.17;99968.66;1626280;87;21067;-55
2022/05/04 10:07:52;;;;;;;5.97;3.12;;;;;;;34.48;15.54;99969.60;1653644;86;21234;-60
2022/05/04 10:10:21;;;;;;;6.83;3.55;;;;;;;34.16;16.01;99969.59;1626406;87;21062;-58
2022/05/04 10:12:50;;;;;;;7.57;3.73;;;;;;;33.60;16.13;99973.16;1653567;86;21058;-64
2022/05/04 10:15:19;;;;;;;4.57;3.67;;;;;;;33.07;16.45;99977.81;1653896;85;21137;-59
2022/05/04 10:18:09;;;;;;;6.07;3.30;;;;;;;32.44;16.80;99969.28;1618688;87;21370;-58
2022/05/04 10:20:48;;;;;;;9.80;3.72;;;;;;;31.64;17.44;99966.93;1688019;83;21890;-63
2022/05/04 10:23:28;;;;;;;6.20;3.60;;;;;;;31.24;17.57;99961.98;1653696;86;21246;-56
2022/05/04 10:25:57;;;;;;;5.93;3.97;;;;;;;31.12;17.99;99961.93;1626356;87;21460;-57
2022/05/04 10:28:25;;;;;;;7.37;4.07;;;;;;;31.29;17.87;99961.78;1653503;86;21497;-60
2022/05/04 10:30:59;;;;;;;7.00;3.83;;;;;;;31.65;17.63;99955.02;1625647;87;21377;-57
2022/05/04 10:33:34;;;;;;;6.43;3.93;;;;;;;31.86;17.54;99949.59;1652546;86;21890;-55
2022/05/04 10:36:22;;;;;;;5.80;3.90;;;;;;;31.95;17.12;99957.05;1617312;87;20997;-57
2022/05/04 10:38:56;;;;;;;8.00;4.40;;;;;;;32.04;16.87;99953.69;1653281;86;21525;-58
2022/05/04 10:41:37;;;;;;;6.80;4.50;;;;;;;31.96;16.72;99949.18;1626054;87;21007;-56
2022/05/04 10:44:07;;;;;;;9.13;5.23;;;;;;;31.62;17.00;99952.42;1652813;86;21543;-62
2022/05/04 10:46:41;;;;;;;6.42;3.90;;;;;;;31.88;16.96;99945.45;1638356;86;21340;-56
2022/05/04 10:49:13;;;;;;;5.77;4.03;;;;;;;32.29;16.29;99935.64;1653856;86;22155;-57
2022/05/04 10:51:42;;;;;;;7.30;3.67;;;;;;;32.70;15.78;99933.29;1654150;85;20998;-56
2022/05/04 10:54:17;;;;;;;5.60;4.33;;;;;;;33.31;15.64;99933.73;1653451;86;21134;-55
2022/05/04 10:56:49;;;;;;;7.00;4.10;;;;;;;34.25;26.30;99927.51;1643263;85;21580;-56
2022/05/04 10:59:34;;;;;;;6.78;3.92;;;;;;;34.74;28.19;99933.30;1653472;85;27696;-56
2022/05/04 11:02:06;;;;;;;5.67;3.90;;;;;;;35.23;26.55;99914.38;1634085;87;21066;-57
2022/05/04 11:04:34;;;;;;;5.77;3.77;;;;;;;35.20;24.24;99909.13;1653905;86;21104;-57
2022/05/04 11:07:06;;;;;;;6.47;4.17;;;;;;;34.99;25.41;99913.53;1653696;86;21592;-57
2022/05/04 11:09:39;;;;;;;5.58;3.80;;;;;;;35.00;26.54;99904.83;1671120;85;21084;-56
2022/05/04 11:12:08;;;;;;;5.40;3.73;;;;;;;35.06;24.48;99902.84;1671449;83;21262;-57
2022/05/04 11:14:35;;;;;;;5.60;3.90;;;;;;;35.12;18.14;99895.22;1670762;85;21796;-56
2022/05/04 11:17:08;;;;;;;6.27;4.03;;;;;;;34.85;15.83;99891.53;1673064;83;21061;-56
2022/05/04 11:19:35;;;;;;;5.13;3.70;;;;;;;34.49;15.29;99885.37;1671501;83;21006;-57
2022/05/04 11:22:03;;;;;;;5.63;3.47;;;;;;;34.20;15.01;99880.41;1640213;86;21540;-58
2022/05/04 11:24:31;;;;;;;6.10;3.53;;;;;;;34.02;15.09;99871.33;1671931;83;21457;-58
2022/05/04 11:26:59;;;;;;;5.83;3.30;;;;;;;34.18;15.03;99863.19;1671266;85;21523;-57
2022/05/04 11:29:27;;;;;;;5.97;3.30;;;;;;;34.43;14.46;99863.73;1671809;83;21017;-64
2022/05/04 11:31:59;;;;;;;4.10;2.90;;;;;;;34.30;14.55;99851.47;1671034;85;21673;-58
2022/05/04 11:34:29;;;;;;;4.57;3.10;;;;;;;34.27;14.91;99852.95;1673129;83;21801;-56
2022/05/04 11:36:58;;;;;;;6.27;3.10;;;;;;;34.32;14.96;99838.36;1671282;85;21507;-56
2022/05/04 11:39:27;;;;;;;5.13;2.80;;;;;;;34.36;14.61;99844.63;1671179;85;22254;-63
2022/05/04 11:41:55;;;;;;;5.70;3.37;;;;;;;34.30;14.65;99844.14;1671746;83;21022;-63
2022/05/04 11:44:25;;;;;;;4.23;3.03;;;;;;;34.19;14.83;99852.58;1671055;85;21673;-58
2022/05/04 11:46:58;;;;;;;5.27;2.90;;;;;;;34.05;14.77;99844.91;1656910;86;20985;-56
2022/05/04 11:49:28;;;;;;;5.50;3.00;;;;;;;34.21;14.87;99844.91;1672174;83;21165;-57
2022/05/04 11:51:56;;;;;;;3.50;2.40;;;;;;;34.35;14.78;99834.95;1670773;84;21482;-57
2022/05/04 11:54:24;;;;;;;3.77;2.63;;;;;;;34.41;14.69;99837.61;1673709;83;21053;-57
2022/05/04 11:56:51;;;;;;;5.07;3.23;;;;;;;34.33;14.76;99837.24;1670870;85;21018;-56
2022/05/04 11:59:18;;;;;;;6.73;3.27;;;;;;;34.24;14.75;99838.77;1671372;83;21049;-63
2022/05/04 12:01:46;;;;;;;6.27;3.30;;;;;;;34.28;14.55;99826.67;1671364;83;21229;-60